createdAt,value
2023-02-04T00:00:07.706Z,989.67
2023-02-04T00:01:07.715Z,989.67
2023-02-04T00:02:07.681Z,989.63
2023-02-04T00:03:07.720Z,989.67
2023-02-04T00:04:07.681Z,989.69
2023-02-04T00:05:07.639Z,989.67
2023-02-04T00:06:07.726Z,989.69
2023-02-04T00:07:07.624Z,989.67
2023-02-04T00:08:07.614Z,989.64
2023-02-04T00:09:07.629Z,989.70
2023-02-04T00:10:07.598Z,989.63
2023-02-04T00:11:07.576Z,989.68
2023-02-04T00:12:07.557Z,989.77
2023-02-04T00:13:07.560Z,989.71
2023-02-04T00:14:07.600Z,989.74
2023-02-04T00:15:07.539Z,989.74
2023-02-04T00:16:07.574Z,989.76
2023-02-04T00:17:07.512Z,989.78
2023-02-04T00:18:09.220Z,989.81
2023-02-04T00:19:07.490Z,989.86
2023-02-04T00:20:07.508Z,989.84
2023-02-04T00:21:07.473Z,989.84
2023-02-04T00:22:07.457Z,989.82
2023-02-04T00:23:07.440Z,989.88
2023-02-04T00:24:07.495Z,989.84
2023-02-04T00:25:07.469Z,990.00
2023-02-04T00:26:07.407Z,989.93
2023-02-04T00:27:07.432Z,989.94
2023-02-04T00:28:07.461Z,990.01
2023-02-04T00:29:07.383Z,989.94
2023-02-04T00:30:07.410Z,989.99
2023-02-04T00:31:07.410Z,990.00
2023-02-04T00:32:07.498Z,990.05
2023-02-04T00:33:07.372Z,990.04
2023-02-04T00:34:07.335Z,990.09
2023-02-04T00:35:07.372Z,990.10
2023-02-04T00:36:07.332Z,990.09
2023-02-04T00:37:07.357Z,990.17
2023-02-04T00:38:07.297Z,990.17
2023-02-04T00:39:07.557Z,990.21
2023-02-04T00:40:07.277Z,990.16
2023-02-04T00:41:07.279Z,990.20
2023-02-04T00:42:07.291Z,990.20
2023-02-04T00:43:07.257Z,990.20
2023-02-04T00:44:08.237Z,990.25
2023-02-04T00:45:07.283Z,990.24
2023-02-04T00:46:07.233Z,990.22
2023-02-04T00:47:07.181Z,990.25
2023-02-04T00:48:07.345Z,990.24
2023-02-04T00:49:07.170Z,990.26
2023-02-04T00:50:07.216Z,990.21
2023-02-04T00:51:07.217Z,990.30
2023-02-04T00:52:07.142Z,990.35
2023-02-04T00:53:07.155Z,990.39
2023-02-04T00:54:07.265Z,990.38
2023-02-04T00:55:07.117Z,990.37
2023-02-04T00:56:07.122Z,990.40
2023-02-04T00:57:07.869Z,990.38
2023-02-04T00:58:07.081Z,990.37
2023-02-04T00:59:07.058Z,990.48
2023-02-04T01:00:07.122Z,990.42
2023-02-04T01:01:07.102Z,990.44
2023-02-04T01:02:07.066Z,990.44
2023-02-04T01:03:07.108Z,990.45
2023-02-04T01:04:07.027Z,990.43
2023-02-04T01:05:07.055Z,990.41
2023-02-04T01:06:07.012Z,990.41
2023-02-04T01:07:07.093Z,990.39
2023-02-04T01:08:06.996Z,990.36
2023-02-04T01:09:06.999Z,990.40
2023-02-04T01:10:07.028Z,990.40
2023-02-04T01:11:06.941Z,990.43
2023-02-04T01:12:06.997Z,990.42
2023-02-04T01:13:06.927Z,990.44
2023-02-04T01:14:06.930Z,990.41
2023-02-04T01:15:06.943Z,990.49
2023-02-04T01:16:06.977Z,990.48
2023-02-04T01:17:06.933Z,990.45
2023-02-04T01:18:06.904Z,990.43
2023-02-04T01:19:06.874Z,990.48
2023-02-04T01:20:06.864Z,990.47
2023-02-04T01:21:06.859Z,990.49
2023-02-04T01:22:06.926Z,990.52
2023-02-04T01:23:06.888Z,990.52
2023-02-04T01:24:06.834Z,990.54
2023-02-04T01:25:06.807Z,990.54
2023-02-04T01:26:06.804Z,990.53
2023-02-04T01:27:06.825Z,990.58
2023-02-04T01:28:06.862Z,990.47
2023-02-04T01:29:06.779Z,990.54
2023-02-04T01:30:06.768Z,990.60
2023-02-04T01:31:06.928Z,990.56
2023-02-04T01:32:06.827Z,990.57
2023-02-04T01:33:06.719Z,990.62
2023-02-04T01:34:06.700Z,990.63
2023-02-04T01:35:06.704Z,990.57
2023-02-04T01:36:06.719Z,990.56
2023-02-04T01:37:06.676Z,990.61
2023-02-04T01:38:06.702Z,990.60
2023-02-04T01:39:06.665Z,990.63
2023-02-04T01:40:06.673Z,990.62
2023-02-04T01:41:06.652Z,990.59
2023-02-04T01:42:06.625Z,990.65
2023-02-04T01:43:06.722Z,990.56
2023-02-04T01:44:06.604Z,990.67
2023-02-04T01:45:06.604Z,990.65
2023-02-04T01:46:06.643Z,990.63
2023-02-04T01:47:06.579Z,990.63
2023-02-04T01:48:06.576Z,990.72
2023-02-04T01:49:06.569Z,990.69
2023-02-04T01:50:06.537Z,990.64
2023-02-04T01:51:06.545Z,990.66
2023-02-04T01:52:06.521Z,990.68
2023-02-04T01:53:06.514Z,990.69
2023-02-04T01:54:06.531Z,990.70
2023-02-04T01:55:06.546Z,990.67
2023-02-04T01:56:06.492Z,990.74
2023-02-04T01:57:06.480Z,990.67
2023-02-04T01:58:06.519Z,990.71
2023-02-04T01:59:06.477Z,990.71
2023-02-04T02:00:06.437Z,990.66
2023-02-04T02:01:06.462Z,990.69
2023-02-04T02:02:06.489Z,990.72
2023-02-04T02:03:06.454Z,990.72
2023-02-04T02:04:06.427Z,990.73
2023-02-04T02:05:06.377Z,990.75
2023-02-04T02:06:06.374Z,990.75
2023-02-04T02:07:06.365Z,990.75
2023-02-04T02:08:06.361Z,990.70
2023-02-04T02:09:06.367Z,990.76
2023-02-04T02:10:06.345Z,990.76
2023-02-04T02:11:06.338Z,990.83
2023-02-04T02:12:06.334Z,990.84
2023-02-04T02:13:06.303Z,990.90
2023-02-04T02:14:06.310Z,990.95
2023-02-04T02:15:06.308Z,990.95
2023-02-04T02:16:06.285Z,990.95
2023-02-04T02:17:06.251Z,991.00
2023-02-04T02:18:06.256Z,991.01
2023-02-04T02:19:06.243Z,991.05
2023-02-04T02:20:06.251Z,990.95
2023-02-04T02:21:06.979Z,990.98
2023-02-04T02:22:06.218Z,991.00
2023-02-04T02:23:06.205Z,990.98
2023-02-04T02:24:06.215Z,991.01
2023-02-04T02:25:06.184Z,991.00
2023-02-04T02:26:06.171Z,991.04
2023-02-04T02:27:06.165Z,990.99
2023-02-04T02:28:06.283Z,991.09
2023-02-04T02:29:06.140Z,991.10
2023-02-04T02:30:06.154Z,991.10
2023-02-04T02:31:06.208Z,991.04
2023-02-04T02:32:06.122Z,991.07
2023-02-04T02:33:06.130Z,991.09
2023-02-04T02:34:06.103Z,991.11
2023-02-04T02:35:06.061Z,991.12
2023-02-04T02:36:06.067Z,991.12
2023-02-04T02:37:06.061Z,991.15
2023-02-04T02:38:06.094Z,991.12
2023-02-04T02:39:06.036Z,991.13
2023-02-04T02:40:06.015Z,991.12
2023-02-04T02:41:06.016Z,991.14
2023-02-04T02:42:05.996Z,991.10
2023-02-04T02:43:06.013Z,991.12
2023-02-04T02:44:06.005Z,991.10
2023-02-04T02:45:05.965Z,991.14
2023-02-04T02:46:06.086Z,991.10
2023-02-04T02:47:05.932Z,991.10
2023-02-04T02:48:05.946Z,991.15
2023-02-04T02:49:05.917Z,991.23
2023-02-04T02:50:05.962Z,991.23
2023-02-04T02:51:05.909Z,991.27
2023-02-04T02:52:05.885Z,991.29
2023-02-04T02:53:05.871Z,991.29
2023-02-04T02:54:05.882Z,991.30
2023-02-04T02:55:05.850Z,991.31
2023-02-04T02:56:05.861Z,991.30
2023-02-04T02:57:05.825Z,991.36
2023-02-04T02:58:05.827Z,991.38
2023-02-04T02:59:05.840Z,991.39
2023-02-04T03:00:05.804Z,991.36
2023-02-04T03:01:05.884Z,991.36
2023-02-04T03:02:05.806Z,991.36
2023-02-04T03:03:05.777Z,991.34
2023-02-04T03:04:05.760Z,991.34
2023-02-04T03:05:05.753Z,991.33
2023-02-04T03:06:05.752Z,991.28
2023-02-04T03:07:05.752Z,991.30
2023-02-04T03:08:05.724Z,991.35
2023-02-04T03:09:05.709Z,991.34
2023-02-04T03:10:05.696Z,991.44
2023-02-04T03:11:05.711Z,991.41
2023-02-04T03:12:05.696Z,991.42
2023-02-04T03:13:05.673Z,991.36
2023-02-04T03:14:05.654Z,991.36
2023-02-04T03:15:05.654Z,991.40
2023-02-04T03:16:05.764Z,991.44
2023-02-04T03:17:05.643Z,991.41
2023-02-04T03:18:05.617Z,991.47
2023-02-04T03:19:05.607Z,991.52
2023-02-04T03:20:05.607Z,991.51
2023-02-04T03:21:05.616Z,991.50
2023-02-04T03:22:05.599Z,991.54
2023-02-04T03:23:05.574Z,991.51
2023-02-04T03:24:05.561Z,991.54
2023-02-04T03:25:05.538Z,991.54
2023-02-04T03:26:05.556Z,991.50
2023-02-04T03:27:05.517Z,991.57
2023-02-04T03:28:05.550Z,991.60
2023-02-04T03:29:05.507Z,991.61
2023-02-04T03:30:05.489Z,991.59
2023-02-04T03:31:05.591Z,991.56
2023-02-04T03:32:05.542Z,991.58
2023-02-04T03:33:05.457Z,991.58
2023-02-04T03:34:05.456Z,991.58
2023-02-04T03:35:05.449Z,991.62
2023-02-04T03:36:05.426Z,991.60
2023-02-04T03:37:05.415Z,991.60
2023-02-04T03:38:05.426Z,991.68
2023-02-04T03:39:05.406Z,991.68
2023-02-04T03:40:05.402Z,991.71
2023-02-04T03:41:05.385Z,991.72
2023-02-04T03:42:05.371Z,991.76
2023-02-04T03:43:05.383Z,991.80
2023-02-04T03:44:05.363Z,991.78
2023-02-04T03:45:05.443Z,991.82
2023-02-04T03:46:05.383Z,991.86
2023-02-04T03:47:05.322Z,991.84
2023-02-04T03:48:05.340Z,991.81
2023-02-04T03:49:05.289Z,991.81
2023-02-04T03:50:05.310Z,991.81
2023-02-04T03:51:05.271Z,991.85
2023-02-04T03:52:05.280Z,991.81
2023-02-04T03:53:05.266Z,991.84
2023-02-04T03:54:05.279Z,991.81
2023-02-04T03:55:05.317Z,991.84
2023-02-04T03:56:05.218Z,991.81
2023-02-04T03:57:05.228Z,991.78
2023-02-04T03:58:05.220Z,991.74
2023-02-04T03:59:05.227Z,991.78
2023-02-04T04:00:05.195Z,991.70
2023-02-04T04:01:05.167Z,991.68
2023-02-04T04:02:05.164Z,991.74
2023-02-04T04:03:05.283Z,991.69
2023-02-04T04:04:05.165Z,991.63
2023-02-04T04:05:05.137Z,991.73
2023-02-04T04:06:05.144Z,991.74
2023-02-04T04:07:05.127Z,991.67
2023-02-04T04:08:05.207Z,991.74
2023-02-04T04:09:05.115Z,991.72
2023-02-04T04:10:05.152Z,991.72
2023-02-04T04:11:05.078Z,991.76
2023-02-04T04:12:05.068Z,991.79
2023-02-04T04:13:05.063Z,991.78
2023-02-04T04:14:05.059Z,991.77
2023-02-04T04:15:05.022Z,991.76
2023-02-04T04:16:05.198Z,991.76
2023-02-04T04:17:05.002Z,991.80
2023-02-04T04:18:05.014Z,991.75
2023-02-04T04:19:04.972Z,991.76
2023-02-04T04:20:04.984Z,991.73
2023-02-04T04:21:04.997Z,991.73
2023-02-04T04:22:04.973Z,991.75
2023-02-04T04:23:04.948Z,991.82
2023-02-04T04:24:04.950Z,991.83
2023-02-04T04:25:04.914Z,991.82
2023-02-04T04:26:04.976Z,991.83
2023-02-04T04:27:04.904Z,991.82
2023-02-04T04:28:04.944Z,991.90
2023-02-04T04:29:04.904Z,991.94
2023-02-04T04:30:04.885Z,991.90
2023-02-04T04:31:05.099Z,991.89
2023-02-04T04:32:04.882Z,991.92
2023-02-04T04:33:04.852Z,991.92
2023-02-04T04:34:04.836Z,991.92
2023-02-04T04:35:04.814Z,991.93
2023-02-04T04:36:04.913Z,991.85
2023-02-04T04:37:04.802Z,991.93
2023-02-04T04:38:04.772Z,991.95
2023-02-04T04:39:04.771Z,991.89
2023-02-04T04:40:04.761Z,991.92
2023-02-04T04:41:04.737Z,991.88
2023-02-04T04:42:04.767Z,991.94
2023-02-04T04:43:04.721Z,991.91
2023-02-04T04:44:04.726Z,991.93
2023-02-04T04:45:04.707Z,991.93
2023-02-04T04:46:04.703Z,992.00
2023-02-04T04:47:04.723Z,991.96
2023-02-04T04:48:04.692Z,992.02
2023-02-04T04:49:04.700Z,991.99
2023-02-04T04:50:04.677Z,991.99
2023-02-04T04:51:04.644Z,992.03
2023-02-04T04:52:04.638Z,992.01
2023-02-04T04:53:04.740Z,991.96
2023-02-04T04:54:04.607Z,992.01
2023-02-04T04:55:04.606Z,991.99
2023-02-04T04:56:04.619Z,991.99
2023-02-04T04:57:04.584Z,992.06
2023-02-04T04:58:04.569Z,992.02
2023-02-04T04:59:04.585Z,992.07
2023-02-04T05:00:04.556Z,992.08
2023-02-04T05:01:04.659Z,992.12
2023-02-04T05:02:04.548Z,992.06
2023-02-04T05:03:04.525Z,992.13
2023-02-04T05:04:04.533Z,992.13
2023-02-04T05:05:04.614Z,992.12
2023-02-04T05:06:04.506Z,992.15
2023-02-04T05:07:04.485Z,992.08
2023-02-04T05:08:04.469Z,992.11
2023-02-04T05:09:04.463Z,992.10
2023-02-04T05:10:04.524Z,992.14
2023-02-04T05:11:04.437Z,992.20
2023-02-04T05:12:04.437Z,992.13
2023-02-04T05:13:04.452Z,992.14
2023-02-04T05:14:04.418Z,992.15
2023-02-04T05:15:04.440Z,992.13
2023-02-04T05:16:04.403Z,992.13
2023-02-04T05:17:04.392Z,992.10
2023-02-04T05:18:04.372Z,992.07
2023-02-04T05:19:04.380Z,992.10
2023-02-04T05:20:04.394Z,992.05
2023-02-04T05:21:04.341Z,992.07
2023-02-04T05:22:04.348Z,992.02
2023-02-04T05:23:05.694Z,992.06
2023-02-04T05:24:04.295Z,992.03
2023-02-04T05:25:04.330Z,992.07
2023-02-04T05:26:04.333Z,992.02
2023-02-04T05:27:04.283Z,992.12
2023-02-04T05:28:04.329Z,992.06
2023-02-04T05:29:04.295Z,992.03
2023-02-04T05:30:04.285Z,992.02
2023-02-04T05:31:04.423Z,992.01
2023-02-04T05:32:04.320Z,992.01
2023-02-04T05:33:04.206Z,991.96
2023-02-04T05:34:04.225Z,992.05
2023-02-04T05:35:05.633Z,992.03
2023-02-04T05:36:04.197Z,992.05
2023-02-04T05:37:04.198Z,992.07
2023-02-04T05:38:04.165Z,992.11
2023-02-04T05:39:04.144Z,992.08
2023-02-04T05:40:04.145Z,992.09
2023-02-04T05:41:04.145Z,992.12
2023-02-04T05:42:04.145Z,992.16
2023-02-04T05:43:04.129Z,992.15
2023-02-04T05:44:04.145Z,992.12
2023-02-04T05:45:04.110Z,992.14
2023-02-04T05:46:04.112Z,992.10
2023-02-04T05:47:04.115Z,992.12
2023-02-04T05:48:04.055Z,992.10
2023-02-04T05:49:04.034Z,992.08
2023-02-04T05:50:04.066Z,992.11
2023-02-04T05:51:04.027Z,992.03
2023-02-04T05:52:04.027Z,992.12
2023-02-04T05:53:04.070Z,992.03
2023-02-04T05:54:04.019Z,991.99
2023-02-04T05:55:03.977Z,991.97
2023-02-04T05:56:03.979Z,992.02
2023-02-04T05:57:03.953Z,992.03
2023-02-04T05:58:03.980Z,992.06
2023-02-04T05:59:03.944Z,992.03
2023-02-04T06:00:03.950Z,992.02
2023-02-04T06:01:03.937Z,992.04
2023-02-04T06:02:03.928Z,992.01
2023-02-04T06:03:03.993Z,991.97
2023-02-04T06:04:03.962Z,991.99
2023-02-04T06:05:03.887Z,991.98
2023-02-04T06:06:03.883Z,992.05
2023-02-04T06:07:03.870Z,992.01
2023-02-04T06:08:03.910Z,992.06
2023-02-04T06:09:03.837Z,992.01
2023-02-04T06:10:03.845Z,992.05
2023-02-04T06:11:03.850Z,992.03
2023-02-04T06:12:03.806Z,992.07
2023-02-04T06:13:03.809Z,992.05
2023-02-04T06:14:03.802Z,992.11
2023-02-04T06:15:03.759Z,992.10
2023-02-04T06:16:03.757Z,992.13
2023-02-04T06:17:03.770Z,992.19
2023-02-04T06:18:03.740Z,992.20
2023-02-04T06:19:03.767Z,992.18
2023-02-04T06:20:03.763Z,992.17
2023-02-04T06:21:03.735Z,992.21
2023-02-04T06:22:03.698Z,992.28
2023-02-04T06:23:03.728Z,992.23
2023-02-04T06:24:05.487Z,992.24
2023-02-04T06:25:03.668Z,992.29
2023-02-04T06:26:03.895Z,992.33
2023-02-04T06:27:03.641Z,992.33
2023-02-04T06:28:03.727Z,992.36
2023-02-04T06:29:04.970Z,992.44
2023-02-04T06:30:03.692Z,992.40
2023-02-04T06:31:03.751Z,992.34
2023-02-04T06:32:03.629Z,992.38
2023-02-04T06:33:03.585Z,992.37
2023-02-04T06:34:03.588Z,992.41
2023-02-04T06:35:03.586Z,992.42
2023-02-04T06:36:04.427Z,992.38
2023-02-04T06:37:03.561Z,992.44
2023-02-04T06:38:03.530Z,992.41
2023-02-04T06:39:03.513Z,992.40
2023-02-04T06:40:03.550Z,992.43
2023-02-04T06:41:03.501Z,992.46
2023-02-04T06:42:03.495Z,992.47
2023-02-04T06:43:04.537Z,992.45
2023-02-04T06:44:04.542Z,992.51
2023-02-04T06:45:03.470Z,992.44
2023-02-04T06:46:04.102Z,992.47
2023-02-04T06:47:03.660Z,992.51
2023-02-04T06:48:03.433Z,992.51
2023-02-04T06:49:03.413Z,992.48
2023-02-04T06:50:03.431Z,992.53
2023-02-04T06:51:03.465Z,992.56
2023-02-04T06:52:04.048Z,992.51
2023-02-04T06:53:03.391Z,992.54
2023-02-04T06:54:03.385Z,992.52
2023-02-04T06:55:03.362Z,992.52
2023-02-04T06:56:03.345Z,992.56
2023-02-04T06:57:03.362Z,992.51
2023-02-04T06:58:03.341Z,992.57
2023-02-04T06:59:03.530Z,992.54
2023-02-04T07:00:03.307Z,992.51
2023-02-04T07:01:03.327Z,992.55
2023-02-04T07:02:03.346Z,992.58
2023-02-04T07:03:03.281Z,992.58
2023-02-04T07:04:03.285Z,992.59
2023-02-04T07:05:03.259Z,992.59
2023-02-04T07:06:03.245Z,992.61
2023-02-04T07:07:03.256Z,992.60
2023-02-04T07:08:03.242Z,992.65
2023-02-04T07:09:03.250Z,992.60
2023-02-04T07:10:03.244Z,992.64
2023-02-04T07:11:03.255Z,992.64
2023-02-04T07:12:03.190Z,992.74
2023-02-04T07:13:03.202Z,992.73
2023-02-04T07:14:03.246Z,992.74
2023-02-04T07:15:03.152Z,992.81
2023-02-04T07:16:03.261Z,992.75
2023-02-04T07:17:03.120Z,992.85
2023-02-04T07:18:03.256Z,992.86
2023-02-04T07:19:03.096Z,992.79
2023-02-04T07:20:03.117Z,992.86
2023-02-04T07:21:03.122Z,992.86
2023-02-04T07:22:03.186Z,992.93
2023-02-04T07:23:03.058Z,992.88
2023-02-04T07:24:03.100Z,992.93
2023-02-04T07:25:03.060Z,992.95
2023-02-04T07:26:03.031Z,992.93
2023-02-04T07:27:03.027Z,992.97
2023-02-04T07:28:03.095Z,993.02
2023-02-04T07:29:03.065Z,993.04
2023-02-04T07:30:02.990Z,993.00
2023-02-04T07:31:03.833Z,993.03
2023-02-04T07:32:03.206Z,993.02
2023-02-04T07:33:02.971Z,993.05
2023-02-04T07:34:02.945Z,993.04
2023-02-04T07:35:02.940Z,993.08
2023-02-04T07:36:02.926Z,993.13
2023-02-04T07:37:03.023Z,993.09
2023-02-04T07:38:02.922Z,993.08
2023-02-04T07:39:02.933Z,993.08
2023-02-04T07:40:02.869Z,993.05
2023-02-04T07:41:02.889Z,993.07
2023-02-04T07:42:03.622Z,993.09
2023-02-04T07:43:02.828Z,993.10
2023-02-04T07:44:03.455Z,993.08
2023-02-04T07:45:02.818Z,993.18
2023-02-04T07:46:02.865Z,993.11
2023-02-04T07:47:02.794Z,993.12
2023-02-04T07:48:02.817Z,993.14
2023-02-04T07:49:02.769Z,993.20
2023-02-04T07:50:02.773Z,993.19
2023-02-04T07:51:02.784Z,993.32
2023-02-04T07:52:02.757Z,993.28
2023-02-04T07:53:02.777Z,993.30
2023-02-04T07:54:02.726Z,993.32
2023-02-04T07:55:02.716Z,993.28
2023-02-04T07:56:02.728Z,993.27
2023-02-04T07:57:02.746Z,993.27
2023-02-04T07:58:02.771Z,993.26
2023-02-04T07:59:02.703Z,993.24
2023-02-04T08:00:02.666Z,993.27
2023-02-04T08:01:02.669Z,993.31
2023-02-04T08:02:02.668Z,993.27
2023-02-04T08:03:02.717Z,993.24
2023-02-04T08:04:02.641Z,993.21
2023-02-04T08:05:02.610Z,993.26
2023-02-04T08:06:02.628Z,993.24
2023-02-04T08:07:02.585Z,993.28
2023-02-04T08:08:02.588Z,993.32
2023-02-04T08:09:02.579Z,993.31
2023-02-04T08:10:02.601Z,993.31
2023-02-04T08:11:02.587Z,993.31
2023-02-04T08:12:02.540Z,993.25
2023-02-04T08:13:02.527Z,993.25
2023-02-04T08:14:02.511Z,993.21
2023-02-04T08:15:02.574Z,993.20
2023-02-04T08:16:02.610Z,993.25
2023-02-04T08:17:02.493Z,993.24
2023-02-04T08:18:02.525Z,993.25
2023-02-04T08:19:02.464Z,993.26
2023-02-04T08:20:02.453Z,993.18
2023-02-04T08:21:02.447Z,993.14
2023-02-04T08:22:02.499Z,993.22
2023-02-04T08:23:02.426Z,993.21
2023-02-04T08:24:02.398Z,993.26
2023-02-04T08:25:02.397Z,993.21
2023-02-04T08:26:02.432Z,993.21
2023-02-04T08:27:02.453Z,993.26
2023-02-04T08:28:02.422Z,993.21
2023-02-04T08:29:02.370Z,993.25
2023-02-04T08:30:02.342Z,993.19
2023-02-04T08:31:02.454Z,993.15
2023-02-04T08:32:02.421Z,993.16
2023-02-04T08:33:02.330Z,993.21
2023-02-04T08:34:02.298Z,993.20
2023-02-04T08:35:02.300Z,993.23
2023-02-04T08:36:02.294Z,993.25
2023-02-04T08:37:02.260Z,993.25
2023-02-04T08:38:02.350Z,993.25
2023-02-04T08:39:02.241Z,993.28
2023-02-04T08:40:02.240Z,993.24
2023-02-04T08:41:02.308Z,993.23
2023-02-04T08:42:02.207Z,993.25
2023-02-04T08:43:02.225Z,993.26
2023-02-04T08:44:02.198Z,993.20
2023-02-04T08:45:03.171Z,993.22
2023-02-04T08:46:02.201Z,993.22
2023-02-04T08:47:02.155Z,993.28
2023-02-04T08:48:02.179Z,993.25
2023-02-04T08:49:02.159Z,993.29
2023-02-04T08:50:02.194Z,993.26
2023-02-04T08:51:02.157Z,993.27
2023-02-04T08:52:03.302Z,993.33
2023-02-04T08:53:02.152Z,993.33
2023-02-04T08:54:02.099Z,993.37
2023-02-04T08:55:02.096Z,993.35
2023-02-04T08:56:02.090Z,993.33
2023-02-04T08:57:02.118Z,993.32
2023-02-04T08:58:02.081Z,993.31
2023-02-04T08:59:02.059Z,993.36
2023-02-04T09:00:02.052Z,993.36
2023-02-04T09:01:02.105Z,993.35
2023-02-04T09:02:02.053Z,993.34
2023-02-04T09:03:02.070Z,993.28
2023-02-04T09:04:02.069Z,993.32
2023-02-04T09:05:02.049Z,993.34
2023-02-04T09:06:01.985Z,993.33
2023-02-04T09:07:02.103Z,993.32
2023-02-04T09:08:02.000Z,993.34
2023-02-04T09:09:01.954Z,993.33
2023-02-04T09:10:01.978Z,993.35
2023-02-04T09:11:01.940Z,993.36
2023-02-04T09:12:01.945Z,993.33
2023-02-04T09:13:01.919Z,993.37
2023-02-04T09:14:02.649Z,993.33
2023-02-04T09:15:01.915Z,993.26
2023-02-04T09:16:01.916Z,993.26
2023-02-04T09:17:01.879Z,993.26
2023-02-04T09:18:01.864Z,993.21
2023-02-04T09:19:01.864Z,993.22
2023-02-04T09:20:01.982Z,993.26
2023-02-04T09:21:01.839Z,993.18
2023-02-04T09:22:01.844Z,993.14
2023-02-04T09:23:01.816Z,993.14
2023-02-04T09:24:01.809Z,993.17
2023-02-04T09:25:02.539Z,993.12
2023-02-04T09:26:01.826Z,993.09
2023-02-04T09:27:02.805Z,993.11
2023-02-04T09:28:02.829Z,993.17
2023-02-04T09:29:02.736Z,993.24
2023-02-04T09:30:01.734Z,993.20
2023-02-04T09:31:04.394Z,993.17
2023-02-04T09:32:01.817Z,993.16
2023-02-04T09:33:01.712Z,993.09
2023-02-04T09:34:01.716Z,993.08
2023-02-04T09:35:01.690Z,993.13
2023-02-04T09:36:01.756Z,993.07
2023-02-04T09:37:01.665Z,993.07
2023-02-04T09:38:01.655Z,993.04
2023-02-04T09:39:01.665Z,993.04
2023-02-04T09:40:01.673Z,993.05
2023-02-04T09:41:01.647Z,993.02
2023-02-04T09:42:01.640Z,993.00
2023-02-04T09:43:01.625Z,992.97
2023-02-04T09:44:01.600Z,992.96
2023-02-04T09:45:01.613Z,992.99
2023-02-04T09:46:01.638Z,993.02
2023-02-04T09:47:01.633Z,992.98
2023-02-04T09:48:01.571Z,992.97
2023-02-04T09:49:01.563Z,993.01
2023-02-04T09:50:02.257Z,992.95
2023-02-04T09:51:01.556Z,992.96
2023-02-04T09:52:01.570Z,993.01
2023-02-04T09:53:01.492Z,993.02
2023-02-04T09:54:01.487Z,992.98
2023-02-04T09:55:01.494Z,993.01
2023-02-04T09:56:01.468Z,992.95
2023-02-04T09:57:01.746Z,993.00
2023-02-04T09:58:01.441Z,992.97
2023-02-04T09:59:01.442Z,992.96
2023-02-04T10:00:01.495Z,992.95
2023-02-04T10:01:01.515Z,992.94
2023-02-04T10:02:01.427Z,992.85
2023-02-04T10:03:01.388Z,992.80
2023-02-04T10:04:01.410Z,992.83
2023-02-04T10:05:01.364Z,992.81
2023-02-04T10:06:01.404Z,992.76
2023-02-04T10:07:01.394Z,992.73
2023-02-04T10:08:01.457Z,992.71
2023-02-04T10:09:01.386Z,992.69
2023-02-04T10:10:01.360Z,992.68
2023-02-04T10:11:01.286Z,992.65
2023-02-04T10:12:01.278Z,992.63
2023-02-04T10:13:01.304Z,992.63
2023-02-04T10:14:01.251Z,992.59
2023-02-04T10:15:01.264Z,992.56
2023-02-04T10:16:01.286Z,992.57
2023-02-04T10:17:01.445Z,992.53
2023-02-04T10:18:01.216Z,992.50
2023-02-04T10:19:01.228Z,992.51
2023-02-04T10:20:01.200Z,992.46
2023-02-04T10:21:01.199Z,992.45
2023-02-04T10:22:01.183Z,992.43
2023-02-04T10:23:02.404Z,992.40
2023-02-04T10:24:01.162Z,992.42
2023-02-04T10:25:01.156Z,992.40
2023-02-04T10:26:01.136Z,992.40
2023-02-04T10:27:01.167Z,992.40
2023-02-04T10:28:01.227Z,992.39
2023-02-04T10:29:01.111Z,992.36
2023-02-04T10:30:01.165Z,992.38
2023-02-04T10:31:01.193Z,992.33
2023-02-04T10:32:01.225Z,992.36
2023-02-04T10:33:01.079Z,992.29
2023-02-04T10:34:01.058Z,992.34
2023-02-04T10:35:01.036Z,992.35
2023-02-04T10:36:01.015Z,992.28
2023-02-04T10:37:01.101Z,992.24
2023-02-04T10:38:01.027Z,992.30
2023-02-04T10:39:00.999Z,992.30
2023-02-04T10:40:01.008Z,992.21
2023-02-04T10:41:00.995Z,992.21
2023-02-04T10:42:01.000Z,992.20
2023-02-04T10:43:00.982Z,992.14
2023-02-04T10:44:00.932Z,992.11
2023-02-04T10:45:00.932Z,992.07
2023-02-04T10:46:01.052Z,992.03
2023-02-04T10:47:01.049Z,992.02
2023-02-04T10:48:00.903Z,991.96
2023-02-04T10:49:00.914Z,991.95
2023-02-04T10:50:00.890Z,991.94
2023-02-04T10:51:00.862Z,991.95
2023-02-04T10:52:00.952Z,991.91
2023-02-04T10:53:00.907Z,991.97
2023-02-04T10:54:00.868Z,991.95
2023-02-04T10:55:00.836Z,991.92
2023-02-04T10:56:00.818Z,991.99
2023-02-04T10:57:00.824Z,991.98
2023-02-04T10:58:00.848Z,991.95
2023-02-04T10:59:00.823Z,991.89
2023-02-04T11:00:00.793Z,991.94
2023-02-04T11:01:00.878Z,991.89
2023-02-04T11:02:00.761Z,991.87
2023-02-04T11:03:00.976Z,991.84
2023-02-04T11:04:01.627Z,991.81
2023-02-04T11:05:00.716Z,991.78
2023-02-04T11:06:00.784Z,991.79
2023-02-04T11:07:00.843Z,991.75
2023-02-04T11:08:00.730Z,991.75
2023-02-04T11:09:00.690Z,991.71
2023-02-04T11:10:00.719Z,991.68
2023-02-04T11:11:00.687Z,991.72
2023-02-04T11:12:00.654Z,991.64
2023-02-04T11:13:00.708Z,991.68
2023-02-04T11:14:00.642Z,991.65
2023-02-04T11:15:00.637Z,991.61
2023-02-04T11:16:00.733Z,991.71
2023-02-04T11:17:01.055Z,991.67
2023-02-04T11:18:00.629Z,991.65
2023-02-04T11:19:00.591Z,991.64
2023-02-04T11:20:00.569Z,991.63
2023-02-04T11:21:00.687Z,991.63
2023-02-04T11:22:00.549Z,991.61
2023-02-04T11:23:00.536Z,991.62
2023-02-04T11:24:00.535Z,991.58
2023-02-04T11:25:00.528Z,991.57
2023-02-04T11:26:00.532Z,991.56
2023-02-04T11:27:01.088Z,991.56
2023-02-04T11:28:00.596Z,991.49
2023-02-04T11:29:00.507Z,991.48
2023-02-04T11:30:00.494Z,991.44
2023-02-04T11:31:00.590Z,991.47
2023-02-04T11:32:00.580Z,991.49
2023-02-04T11:33:00.693Z,991.41
2023-02-04T11:34:00.505Z,991.41
2023-02-04T11:35:00.429Z,991.39
2023-02-04T11:36:00.506Z,991.45
2023-02-04T11:37:00.427Z,991.42
2023-02-04T11:38:00.643Z,991.40
2023-02-04T11:39:00.621Z,991.40
2023-02-04T11:40:00.438Z,991.38
2023-02-04T11:41:00.373Z,991.39
2023-02-04T11:42:00.325Z,991.39
2023-02-04T11:43:00.320Z,991.35
2023-02-04T11:44:00.343Z,991.26
2023-02-04T11:45:00.323Z,991.24
2023-02-04T11:46:00.358Z,991.22
2023-02-04T11:47:00.292Z,991.21
2023-02-04T11:48:00.273Z,991.27
2023-02-04T11:49:00.268Z,991.22
2023-02-04T11:50:02.498Z,991.24
2023-02-04T11:51:00.223Z,991.24
2023-02-04T11:52:00.271Z,991.21
2023-02-04T11:53:00.259Z,991.19
2023-02-04T11:54:00.201Z,991.16
2023-02-04T11:55:00.204Z,991.19
2023-02-04T11:56:00.206Z,991.14
2023-02-04T11:57:00.201Z,991.22
2023-02-04T11:58:00.178Z,991.16
2023-02-04T11:59:00.178Z,991.09
2023-02-04T12:00:00.165Z,991.11
2023-02-04T12:01:00.139Z,991.21
2023-02-04T12:02:00.145Z,991.12
2023-02-04T12:03:00.216Z,991.20
2023-02-04T12:04:00.230Z,991.15
2023-02-04T12:05:00.102Z,991.16
2023-02-04T12:06:00.111Z,991.05
2023-02-04T12:07:00.110Z,991.15
2023-02-04T12:08:00.070Z,991.16
2023-02-04T12:09:00.090Z,991.09
2023-02-04T12:10:00.040Z,991.14
2023-02-04T12:11:00.031Z,991.07
2023-02-04T12:12:00.042Z,991.19
2023-02-04T12:13:00.033Z,991.09
2023-02-04T12:13:59.992Z,991.06
2023-02-04T12:14:59.991Z,991.08
2023-02-04T12:16:00.059Z,991.07
2023-02-04T12:17:00.135Z,991.08
2023-02-04T12:17:59.987Z,991.01
2023-02-04T12:18:59.949Z,991.02
2023-02-04T12:19:59.997Z,991.04
2023-02-04T12:21:00.029Z,990.88
2023-02-04T12:21:59.926Z,990.96
2023-02-04T12:22:59.911Z,990.88
2023-02-04T12:23:59.908Z,990.85
2023-02-04T12:24:59.887Z,990.88
2023-02-04T12:25:59.883Z,990.82
2023-02-04T12:26:59.870Z,990.75
2023-02-04T12:27:59.883Z,990.75